sensor_id;sensor_type;location;lat;lon;timestamp;temperature;humidity
975;DHT22;6115;49.296;10.602;2023-05-27T00:01:29;14.10;47.90
975;DHT22;6115;49.296;10.602;2023-05-27T00:06:30;14.10;47.60
975;DHT22;6115;49.296;10.602;2023-05-27T00:11:30;14.00;48.10
975;DHT22;6115;49.296;10.602;2023-05-27T00:16:31;14.00;48.10
975;DHT22;6115;49.296;10.602;2023-05-27T00:21:31;14.00;47.90
975;DHT22;6115;49.296;10.602;2023-05-27T00:26:32;14.00;48.00
975;DHT22;6115;49.296;10.602;2023-05-27T00:31:33;14.00;47.90
975;DHT22;6115;49.296;10.602;2023-05-27T00:36:33;13.90;48.20
975;DHT22;6115;49.296;10.602;2023-05-27T00:41:34;13.70;48.70
975;DHT22;6115;49.296;10.602;2023-05-27T00:46:34;13.70;48.90
975;DHT22;6115;49.296;10.602;2023-05-27T00:51:35;13.70;48.90
975;DHT22;6115;49.296;10.602;2023-05-27T00:56:36;13.60;49.10
975;DHT22;6115;49.296;10.602;2023-05-27T01:01:37;13.60;49.10
975;DHT22;6115;49.296;10.602;2023-05-27T01:11:53;13.40;49.10
975;DHT22;6115;49.296;10.602;2023-05-27T01:16:57;13.20;49.80
975;DHT22;6115;49.296;10.602;2023-05-27T01:21:59;13.10;49.80
975;DHT22;6115;49.296;10.602;2023-05-27T01:27:00;13.10;49.70
975;DHT22;6115;49.296;10.602;2023-05-27T01:32:23;13.10;49.90
975;DHT22;6115;49.296;10.602;2023-05-27T01:37:29;13.00;50.50
975;DHT22;6115;49.296;10.602;2023-05-27T01:42:31;12.80;50.00
975;DHT22;6115;49.296;10.602;2023-05-27T01:47:33;12.70;50.50
975;DHT22;6115;49.296;10.602;2023-05-27T01:52:34;12.60;50.60
975;DHT22;6115;49.296;10.602;2023-05-27T01:57:34;12.60;50.70
975;DHT22;6115;49.296;10.602;2023-05-27T02:02:35;12.40;50.90
975;DHT22;6115;49.296;10.602;2023-05-27T02:07:36;12.40;50.40
975;DHT22;6115;49.296;10.602;2023-05-27T02:12:37;12.40;50.40
975;DHT22;6115;49.296;10.602;2023-05-27T02:17:37;12.50;50.10
975;DHT22;6115;49.296;10.602;2023-05-27T02:22:39;12.50;49.70
975;DHT22;6115;49.296;10.602;2023-05-27T02:27:39;12.50;49.70
975;DHT22;6115;49.296;10.602;2023-05-27T02:32:42;12.50;49.50
975;DHT22;6115;49.296;10.602;2023-05-27T02:37:42;12.50;49.50
975;DHT22;6115;49.296;10.602;2023-05-27T02:42:43;12.30;49.00
975;DHT22;6115;49.296;10.602;2023-05-27T02:47:43;12.10;49.70
975;DHT22;6115;49.296;10.602;2023-05-27T02:52:44;12.00;50.00
975;DHT22;6115;49.296;10.602;2023-05-27T02:57:45;12.00;49.80
975;DHT22;6115;49.296;10.602;2023-05-27T03:02:46;12.00;49.90
975;DHT22;6115;49.296;10.602;2023-05-27T03:07:47;12.00;50.00
975;DHT22;6115;49.296;10.602;2023-05-27T03:12:48;11.90;49.80
975;DHT22;6115;49.296;10.602;2023-05-27T03:17:48;11.90;50.00
975;DHT22;6115;49.296;10.602;2023-05-27T03:22:49;11.80;50.20
975;DHT22;6115;49.296;10.602;2023-05-27T03:27:50;11.70;50.30
975;DHT22;6115;49.296;10.602;2023-05-27T03:32:51;11.60;50.50
975;DHT22;6115;49.296;10.602;2023-05-27T03:37:51;11.50;50.60
975;DHT22;6115;49.296;10.602;2023-05-27T03:42:53;11.40;50.70
975;DHT22;6115;49.296;10.602;2023-05-27T03:47:53;11.30;51.00
975;DHT22;6115;49.296;10.602;2023-05-27T03:52:54;11.30;51.10
975;DHT22;6115;49.296;10.602;2023-05-27T03:57:54;11.30;51.40
975;DHT22;6115;49.296;10.602;2023-05-27T04:02:55;11.20;51.50
975;DHT22;6115;49.296;10.602;2023-05-27T04:07:56;11.20;51.50
975;DHT22;6115;49.296;10.602;2023-05-27T04:12:57;11.30;51.60
975;DHT22;6115;49.296;10.602;2023-05-27T04:17:57;11.40;51.40
975;DHT22;6115;49.296;10.602;2023-05-27T04:22:58;11.40;51.30
975;DHT22;6115;49.296;10.602;2023-05-27T04:27:58;11.30;51.60
975;DHT22;6115;49.296;10.602;2023-05-27T04:32:59;11.20;51.50
975;DHT22;6115;49.296;10.602;2023-05-27T04:38:00;11.30;51.60
975;DHT22;6115;49.296;10.602;2023-05-27T04:43:03;11.40;51.70
975;DHT22;6115;49.296;10.602;2023-05-27T04:48:04;11.40;51.30
975;DHT22;6115;49.296;10.602;2023-05-27T04:53:04;11.50;51.20
975;DHT22;6115;49.296;10.602;2023-05-27T04:58:05;11.60;51.10
975;DHT22;6115;49.296;10.602;2023-05-27T05:03:05;11.60;50.90
975;DHT22;6115;49.296;10.602;2023-05-27T05:08:07;11.70;50.80
975;DHT22;6115;49.296;10.602;2023-05-27T05:13:08;11.80;50.80
975;DHT22;6115;49.296;10.602;2023-05-27T05:18:08;11.80;51.10
975;DHT22;6115;49.296;10.602;2023-05-27T05:23:09;11.90;51.00
975;DHT22;6115;49.296;10.602;2023-05-27T05:28:10;12.10;50.70
975;DHT22;6115;49.296;10.602;2023-05-27T05:33:10;12.30;50.50
975;DHT22;6115;49.296;10.602;2023-05-27T05:38:11;12.40;50.30
975;DHT22;6115;49.296;10.602;2023-05-27T05:43:11;12.60;49.20
975;DHT22;6115;49.296;10.602;2023-05-27T05:48:12;12.70;48.30
975;DHT22;6115;49.296;10.602;2023-05-27T05:53:12;12.70;48.80
975;DHT22;6115;49.296;10.602;2023-05-27T05:58:13;12.80;48.80
975;DHT22;6115;49.296;10.602;2023-05-27T06:03:13;12.80;48.40
975;DHT22;6115;49.296;10.602;2023-05-27T06:08:14;12.90;48.60
975;DHT22;6115;49.296;10.602;2023-05-27T06:13:15;13.00;48.20
975;DHT22;6115;49.296;10.602;2023-05-27T06:18:15;13.20;48.30
975;DHT22;6115;49.296;10.602;2023-05-27T06:23:16;13.30;47.70
975;DHT22;6115;49.296;10.602;2023-05-27T06:28:16;13.40;48.00
975;DHT22;6115;49.296;10.602;2023-05-27T06:33:17;13.70;47.30
975;DHT22;6115;49.296;10.602;2023-05-27T06:38:17;13.80;46.90
975;DHT22;6115;49.296;10.602;2023-05-27T06:43:18;14.00;46.60
975;DHT22;6115;49.296;10.602;2023-05-27T06:48:18;14.10;46.80
975;DHT22;6115;49.296;10.602;2023-05-27T06:53:19;14.20;46.00
975;DHT22;6115;49.296;10.602;2023-05-27T06:58:19;14.30;45.30
975;DHT22;6115;49.296;10.602;2023-05-27T07:03:20;14.60;46.10
975;DHT22;6115;49.296;10.602;2023-05-27T07:08:20;14.80;45.60
975;DHT22;6115;49.296;10.602;2023-05-27T07:13:21;15.00;45.70
975;DHT22;6115;49.296;10.602;2023-05-27T07:18:22;15.20;45.20
975;DHT22;6115;49.296;10.602;2023-05-27T07:23:22;15.40;45.10
975;DHT22;6115;49.296;10.602;2023-05-27T07:28:23;15.60;43.80
975;DHT22;6115;49.296;10.602;2023-05-27T07:33:23;15.80;44.60
975;DHT22;6115;49.296;10.602;2023-05-27T07:38:24;15.90;43.70
975;DHT22;6115;49.296;10.602;2023-05-27T07:43:24;16.10;42.80
975;DHT22;6115;49.296;10.602;2023-05-27T07:48:25;16.30;42.20
975;DHT22;6115;49.296;10.602;2023-05-27T07:53:25;16.50;42.90
975;DHT22;6115;49.296;10.602;2023-05-27T07:58:26;16.60;42.70
975;DHT22;6115;49.296;10.602;2023-05-27T08:03:27;16.80;41.50
975;DHT22;6115;49.296;10.602;2023-05-27T08:08:27;16.90;40.70
975;DHT22;6115;49.296;10.602;2023-05-27T08:13:28;17.10;41.30
975;DHT22;6115;49.296;10.602;2023-05-27T08:18:28;17.30;41.40
975;DHT22;6115;49.296;10.602;2023-05-27T08:23:29;17.50;39.90
975;DHT22;6115;49.296;10.602;2023-05-27T08:28:29;17.70;40.30
975;DHT22;6115;49.296;10.602;2023-05-27T08:33:30;17.80;40.80
975;DHT22;6115;49.296;10.602;2023-05-27T08:38:30;17.90;42.00
975;DHT22;6115;49.296;10.602;2023-05-27T08:43:31;18.20;41.30
975;DHT22;6115;49.296;10.602;2023-05-27T08:48:32;18.40;41.50
975;DHT22;6115;49.296;10.602;2023-05-27T08:53:34;18.60;39.50
975;DHT22;6115;49.296;10.602;2023-05-27T08:58:35;18.70;40.80
975;DHT22;6115;49.296;10.602;2023-05-27T09:03:36;19.00;39.20
975;DHT22;6115;49.296;10.602;2023-05-27T09:08:37;19.80;38.80
975;DHT22;6115;49.296;10.602;2023-05-27T09:13:37;20.10;37.50
975;DHT22;6115;49.296;10.602;2023-05-27T09:18:38;20.20;38.00
975;DHT22;6115;49.296;10.602;2023-05-27T09:23:38;20.10;36.00
975;DHT22;6115;49.296;10.602;2023-05-27T09:28:42;20.10;36.00
975;DHT22;6115;49.296;10.602;2023-05-27T09:33:43;20.30;36.80
975;DHT22;6115;49.296;10.602;2023-05-27T09:38:45;20.50;36.00
975;DHT22;6115;49.296;10.602;2023-05-27T09:43:53;20.70;35.90
975;DHT22;6115;49.296;10.602;2023-05-27T09:48:54;20.90;35.40
975;DHT22;6115;49.296;10.602;2023-05-27T09:53:56;21.20;34.50
975;DHT22;6115;49.296;10.602;2023-05-27T09:58:58;21.60;34.30
975;DHT22;6115;49.296;10.602;2023-05-27T10:03:59;21.90;34.00
975;DHT22;6115;49.296;10.602;2023-05-27T10:09:01;22.00;34.70
975;DHT22;6115;49.296;10.602;2023-05-27T10:14:03;22.20;34.30
975;DHT22;6115;49.296;10.602;2023-05-27T10:19:09;22.20;33.00
975;DHT22;6115;49.296;10.602;2023-05-27T10:24:11;22.40;31.40
975;DHT22;6115;49.296;10.602;2023-05-27T10:29:16;22.60;33.00
975;DHT22;6115;49.296;10.602;2023-05-27T10:34:19;22.80;31.10
975;DHT22;6115;49.296;10.602;2023-05-27T10:39:20;22.80;35.50
975;DHT22;6115;49.296;10.602;2023-05-27T10:44:33;23.10;33.30
975;DHT22;6115;49.296;10.602;2023-05-27T10:49:35;23.40;31.00
975;DHT22;6115;49.296;10.602;2023-05-27T10:54:37;23.30;29.70
975;DHT22;6115;49.296;10.602;2023-05-27T10:59:51;23.30;30.90
975;DHT22;6115;49.296;10.602;2023-05-27T11:04:52;23.40;31.40
975;DHT22;6115;49.296;10.602;2023-05-27T11:09:54;23.80;31.20
975;DHT22;6115;49.296;10.602;2023-05-27T11:14:56;23.90;29.60
975;DHT22;6115;49.296;10.602;2023-05-27T11:19:57;24.10;29.30
975;DHT22;6115;49.296;10.602;2023-05-27T11:25:00;24.00;29.10
975;DHT22;6115;49.296;10.602;2023-05-27T11:30:09;24.10;28.70
975;DHT22;6115;49.296;10.602;2023-05-27T11:35:16;24.20;30.40
975;DHT22;6115;49.296;10.602;2023-05-27T11:40:17;24.50;29.00
975;DHT22;6115;49.296;10.602;2023-05-27T11:45:19;24.70;27.90
975;DHT22;6115;49.296;10.602;2023-05-27T11:50:21;24.90;26.40
975;DHT22;6115;49.296;10.602;2023-05-27T11:55:22;25.00;26.50
975;DHT22;6115;49.296;10.602;2023-05-27T12:00:23;24.90;24.60
975;DHT22;6115;49.296;10.602;2023-05-27T12:05:24;25.00;25.10
975;DHT22;6115;49.296;10.602;2023-05-27T12:10:24;25.00;25.30
975;DHT22;6115;49.296;10.602;2023-05-27T12:15:25;25.00;25.80
975;DHT22;6115;49.296;10.602;2023-05-27T12:20:26;25.20;25.00
975;DHT22;6115;49.296;10.602;2023-05-27T12:25:29;25.20;24.50
975;DHT22;6115;49.296;10.602;2023-05-27T12:30:29;25.20;25.40
975;DHT22;6115;49.296;10.602;2023-05-27T12:35:30;25.20;25.60
975;DHT22;6115;49.296;10.602;2023-05-27T12:40:31;25.30;26.60
975;DHT22;6115;49.296;10.602;2023-05-27T12:45:33;25.50;25.20
975;DHT22;6115;49.296;10.602;2023-05-27T12:50:33;25.60;27.60
975;DHT22;6115;49.296;10.602;2023-05-27T12:55:34;25.70;26.20
975;DHT22;6115;49.296;10.602;2023-05-27T13:00:35;25.70;24.80
975;DHT22;6115;49.296;10.602;2023-05-27T13:05:36;25.80;24.70
975;DHT22;6115;49.296;10.602;2023-05-27T13:10:36;26.00;24.80
975;DHT22;6115;49.296;10.602;2023-05-27T13:15:37;26.20;25.80
975;DHT22;6115;49.296;10.602;2023-05-27T13:20:37;26.40;25.30
975;DHT22;6115;49.296;10.602;2023-05-27T13:25:41;26.50;23.20
975;DHT22;6115;49.296;10.602;2023-05-27T13:30:42;26.40;25.10
975;DHT22;6115;49.296;10.602;2023-05-27T13:35:44;26.30;24.30
975;DHT22;6115;49.296;10.602;2023-05-27T13:40:45;26.30;24.60
975;DHT22;6115;49.296;10.602;2023-05-27T13:45:45;26.60;22.20
975;DHT22;6115;49.296;10.602;2023-05-27T13:50:46;26.40;24.30
975;DHT22;6115;49.296;10.602;2023-05-27T13:55:46;26.60;24.20
975;DHT22;6115;49.296;10.602;2023-05-27T14:00:47;26.80;24.30
975;DHT22;6115;49.296;10.602;2023-05-27T14:05:48;26.50;24.40
975;DHT22;6115;49.296;10.602;2023-05-27T14:10:50;26.70;24.80
975;DHT22;6115;49.296;10.602;2023-05-27T14:15:51;27.00;21.90
975;DHT22;6115;49.296;10.602;2023-05-27T14:20:51;27.00;24.60
975;DHT22;6115;49.296;10.602;2023-05-27T14:25:52;27.10;22.50
975;DHT22;6115;49.296;10.602;2023-05-27T14:30:53;27.20;23.90
975;DHT22;6115;49.296;10.602;2023-05-27T14:35:54;27.10;24.20
975;DHT22;6115;49.296;10.602;2023-05-27T14:40:54;27.30;22.60
975;DHT22;6115;49.296;10.602;2023-05-27T14:45:56;27.20;23.40
975;DHT22;6115;49.296;10.602;2023-05-27T14:50:56;27.30;23.30
975;DHT22;6115;49.296;10.602;2023-05-27T14:55:57;27.50;23.40
975;DHT22;6115;49.296;10.602;2023-05-27T15:00:57;27.80;23.00
975;DHT22;6115;49.296;10.602;2023-05-27T15:05:58;27.80;23.30
975;DHT22;6115;49.296;10.602;2023-05-27T15:10:59;27.90;23.10
975;DHT22;6115;49.296;10.602;2023-05-27T15:15:59;27.80;23.10
975;DHT22;6115;49.296;10.602;2023-05-27T15:21:00;27.90;23.50
975;DHT22;6115;49.296;10.602;2023-05-27T15:26:01;27.90;23.00
975;DHT22;6115;49.296;10.602;2023-05-27T15:31:02;27.60;22.80
975;DHT22;6115;49.296;10.602;2023-05-27T15:36:03;27.80;21.80
975;DHT22;6115;49.296;10.602;2023-05-27T15:41:04;27.80;21.20
975;DHT22;6115;49.296;10.602;2023-05-27T15:46:04;27.90;22.00
975;DHT22;6115;49.296;10.602;2023-05-27T15:51:07;28.00;21.50
975;DHT22;6115;49.296;10.602;2023-05-27T15:56:08;28.00;21.50
975;DHT22;6115;49.296;10.602;2023-05-27T16:01:09;27.80;22.10
975;DHT22;6115;49.296;10.602;2023-05-27T16:06:09;27.30;21.20
975;DHT22;6115;49.296;10.602;2023-05-27T16:11:10;26.80;21.20
975;DHT22;6115;49.296;10.602;2023-05-27T16:16:11;26.40;20.70
975;DHT22;6115;49.296;10.602;2023-05-27T16:21:11;26.30;21.60
975;DHT22;6115;49.296;10.602;2023-05-27T16:26:13;26.00;21.70
975;DHT22;6115;49.296;10.602;2023-05-27T16:31:13;26.00;21.80
975;DHT22;6115;49.296;10.602;2023-05-27T16:36:14;25.90;21.10
975;DHT22;6115;49.296;10.602;2023-05-27T16:41:14;25.60;22.10
975;DHT22;6115;49.296;10.602;2023-05-27T16:46:15;25.20;22.40
975;DHT22;6115;49.296;10.602;2023-05-27T16:51:15;25.00;22.60
975;DHT22;6115;49.296;10.602;2023-05-27T16:56:16;24.80;22.50
975;DHT22;6115;49.296;10.602;2023-05-27T17:01:16;24.80;23.20
975;DHT22;6115;49.296;10.602;2023-05-27T17:06:17;24.60;22.90
975;DHT22;6115;49.296;10.602;2023-05-27T17:11:18;24.60;23.30
975;DHT22;6115;49.296;10.602;2023-05-27T17:16:18;24.50;23.10
975;DHT22;6115;49.296;10.602;2023-05-27T17:21:19;24.40;23.50
975;DHT22;6115;49.296;10.602;2023-05-27T17:26:20;24.30;23.30
975;DHT22;6115;49.296;10.602;2023-05-27T17:31:21;24.10;23.20
975;DHT22;6115;49.296;10.602;2023-05-27T17:36:22;23.90;23.30
975;DHT22;6115;49.296;10.602;2023-05-27T17:41:23;23.70;23.70
975;DHT22;6115;49.296;10.602;2023-05-27T17:46:23;23.50;24.20
975;DHT22;6115;49.296;10.602;2023-05-27T17:51:24;23.30;23.70
975;DHT22;6115;49.296;10.602;2023-05-27T17:56:27;23.10;23.70
975;DHT22;6115;49.296;10.602;2023-05-27T18:01:27;23.10;24.00
975;DHT22;6115;49.296;10.602;2023-05-27T18:06:29;23.10;24.80
975;DHT22;6115;49.296;10.602;2023-05-27T18:11:31;23.20;24.60
975;DHT22;6115;49.296;10.602;2023-05-27T18:16:32;23.10;24.70
975;DHT22;6115;49.296;10.602;2023-05-27T18:21:33;23.00;25.20
975;DHT22;6115;49.296;10.602;2023-05-27T18:26:33;22.70;25.00
975;DHT22;6115;49.296;10.602;2023-05-27T18:31:34;22.50;24.90
975;DHT22;6115;49.296;10.602;2023-05-27T18:36:35;22.50;24.90
975;DHT22;6115;49.296;10.602;2023-05-27T18:41:35;22.50;24.90
975;DHT22;6115;49.296;10.602;2023-05-27T18:46:38;22.40;25.50
975;DHT22;6115;49.296;10.602;2023-05-27T18:51:38;22.20;25.80
975;DHT22;6115;49.296;10.602;2023-05-27T18:56:39;22.00;26.40
975;DHT22;6115;49.296;10.602;2023-05-27T19:01:40;21.80;26.20
975;DHT22;6115;49.296;10.602;2023-05-27T19:06:41;21.50;26.50
975;DHT22;6115;49.296;10.602;2023-05-27T19:11:42;21.40;26.90
975;DHT22;6115;49.296;10.602;2023-05-27T19:16:42;21.10;27.80
975;DHT22;6115;49.296;10.602;2023-05-27T19:21:43;20.70;27.80
975;DHT22;6115;49.296;10.602;2023-05-27T19:26:43;20.20;28.60
975;DHT22;6115;49.296;10.602;2023-05-27T19:31:44;19.90;29.30
975;DHT22;6115;49.296;10.602;2023-05-27T19:36:45;19.80;29.50
975;DHT22;6115;49.296;10.602;2023-05-27T19:41:46;19.60;30.70
975;DHT22;6115;49.296;10.602;2023-05-27T19:46:46;19.40;30.60
975;DHT22;6115;49.296;10.602;2023-05-27T19:51:47;19.10;31.40
975;DHT22;6115;49.296;10.602;2023-05-27T19:56:47;18.90;32.20
975;DHT22;6115;49.296;10.602;2023-05-27T20:01:48;18.70;33.20
975;DHT22;6115;49.296;10.602;2023-05-27T20:06:48;18.50;33.40
975;DHT22;6115;49.296;10.602;2023-05-27T20:11:53;18.30;34.00
975;DHT22;6115;49.296;10.602;2023-05-27T20:16:58;18.20;34.40
975;DHT22;6115;49.296;10.602;2023-05-27T20:21:59;17.90;35.20
975;DHT22;6115;49.296;10.602;2023-05-27T20:26:59;17.70;36.00
975;DHT22;6115;49.296;10.602;2023-05-27T20:32:01;17.50;36.70
975;DHT22;6115;49.296;10.602;2023-05-27T20:37:02;17.30;37.60
975;DHT22;6115;49.296;10.602;2023-05-27T20:42:03;17.00;38.10
975;DHT22;6115;49.296;10.602;2023-05-27T20:47:03;16.80;37.90
975;DHT22;6115;49.296;10.602;2023-05-27T20:52:05;16.70;38.40
975;DHT22;6115;49.296;10.602;2023-05-27T20:57:05;16.50;39.60
975;DHT22;6115;49.296;10.602;2023-05-27T21:02:08;16.40;40.00
975;DHT22;6115;49.296;10.602;2023-05-27T21:07:10;16.30;40.50
975;DHT22;6115;49.296;10.602;2023-05-27T21:12:12;16.10;40.90
975;DHT22;6115;49.296;10.602;2023-05-27T21:17:12;16.10;41.30
975;DHT22;6115;49.296;10.602;2023-05-27T21:22:13;15.90;41.70
975;DHT22;6115;49.296;10.602;2023-05-27T21:27:13;15.70;41.70
975;DHT22;6115;49.296;10.602;2023-05-27T21:32:14;15.50;41.80
975;DHT22;6115;49.296;10.602;2023-05-27T21:37:14;15.40;42.30
975;DHT22;6115;49.296;10.602;2023-05-27T21:42:15;15.20;42.70
975;DHT22;6115;49.296;10.602;2023-05-27T21:47:18;14.90;43.40
975;DHT22;6115;49.296;10.602;2023-05-27T21:52:20;14.80;44.50
975;DHT22;6115;49.296;10.602;2023-05-27T21:57:24;14.70;45.50
975;DHT22;6115;49.296;10.602;2023-05-27T22:02:24;14.60;45.40
975;DHT22;6115;49.296;10.602;2023-05-27T22:07:26;14.40;45.20
975;DHT22;6115;49.296;10.602;2023-05-27T22:12:26;14.20;45.10
975;DHT22;6115;49.296;10.602;2023-05-27T22:17:27;14.10;45.00
975;DHT22;6115;49.296;10.602;2023-05-27T22:22:27;14.10;45.00
975;DHT22;6115;49.296;10.602;2023-05-27T22:27:28;13.90;45.20
975;DHT22;6115;49.296;10.602;2023-05-27T22:32:28;13.80;46.20
975;DHT22;6115;49.296;10.602;2023-05-27T22:37:29;13.80;46.80
975;DHT22;6115;49.296;10.602;2023-05-27T22:42:30;13.60;46.90
975;DHT22;6115;49.296;10.602;2023-05-27T22:47:30;13.60;47.10
975;DHT22;6115;49.296;10.602;2023-05-27T22:52:32;13.40;47.30
975;DHT22;6115;49.296;10.602;2023-05-27T22:57:32;13.30;47.70
975;DHT22;6115;49.296;10.602;2023-05-27T23:02:33;13.10;47.90
975;DHT22;6115;49.296;10.602;2023-05-27T23:07:33;13.10;47.90
975;DHT22;6115;49.296;10.602;2023-05-27T23:12:35;13.10;48.20
975;DHT22;6115;49.296;10.602;2023-05-27T23:17:36;13.00;48.50
975;DHT22;6115;49.296;10.602;2023-05-27T23:22:36;12.90;48.50
975;DHT22;6115;49.296;10.602;2023-05-27T23:27:37;12.90;48.50
975;DHT22;6115;49.296;10.602;2023-05-27T23:32:40;12.80;48.50
975;DHT22;6115;49.296;10.602;2023-05-27T23:37:42;12.70;48.40
975;DHT22;6115;49.296;10.602;2023-05-27T23:42:43;12.60;48.80
975;DHT22;6115;49.296;10.602;2023-05-27T23:47:44;12.70;48.40
975;DHT22;6115;49.296;10.602;2023-05-27T23:52:44;12.60;48.90
975;DHT22;6115;49.296;10.602;2023-05-27T23:57:45;12.50;49.00
